Time;durP1;ratioP1;P1;durP2;ratioP2;P2;SDS_P1;SDS_P2;PMS_P1;PMS_P2;Temp;Humidity;BMP_temperature;BMP_pressure;BME280_temperature;BME280_humidity;BME280_pressure;Samples;Min_cycle;Max_cycle;Signal;HPM_P1;HPM_P2
2022/05/23 00:00:00;;;;;;;9.48;3.08;;;15.00;99.90;;;;;;5071971;28;20045;-69
2022/05/23 00:02:26;;;;;;;8.43;3.30;;;14.90;99.90;;;;;;5068439;28;20044;-69
2022/05/23 00:04:51;;;;;;;8.43;3.17;;;14.90;99.90;;;;;;5071210;28;20044;-68
2022/05/23 00:07:30;;;;;;;4.65;2.75;;;15.00;99.90;;;;;;5070856;28;20044;-68
2022/05/23 00:09:56;;;;;;;7.93;3.22;;;14.90;99.90;;;;;;5070870;28;20041;-68
2022/05/23 00:12:22;;;;;;;6.85;2.70;;;14.80;99.90;;;;;;5063271;28;20048;-68
2022/05/23 00:14:50;;;;;;;10.77;3.20;;;15.50;99.90;;;;;;5070902;28;20055;-68
2022/05/23 00:17:16;;;;;;;6.32;3.13;;;14.70;99.90;;;;;;5067502;28;20094;-68
2022/05/23 00:19:42;;;;;;;8.43;3.08;;;14.70;99.90;;;;;;5071406;28;20072;-68
2022/05/23 00:22:07;;;;;;;9.13;2.83;;;14.80;99.90;;;;;;5070334;28;20089;-67
2022/05/23 00:24:33;;;;;;;8.20;2.92;;;14.60;99.90;;;;;;5070395;28;20390;-68
2022/05/23 00:26:58;;;;;;;9.90;3.22;;;14.60;99.90;;;;;;5070643;28;20047;-68
2022/05/23 00:29:24;;;;;;;9.13;2.95;;;14.60;99.90;;;;;;5070771;28;20048;-67
2022/05/23 00:37:20;;;;;;;9.50;3.13;;;14.40;99.90;;;;;;5069163;28;20044;-67
2022/05/23 00:39:46;;;;;;;10.07;4.03;;;14.40;99.90;;;;;;5069813;28;20044;-67
2022/05/23 00:44:59;;;;;;;9.80;3.55;;;14.30;99.90;;;;;;5072128;28;20040;-67
2022/05/23 00:47:27;;;;;;;9.18;3.83;;;14.20;99.90;;;;;;5068475;28;20052;-67
2022/05/23 00:49:53;;;;;;;8.02;3.42;;;14.20;99.90;;;;;;5070666;28;20048;-68
2022/05/23 00:52:26;;;;;;;6.20;3.35;;;14.20;99.90;;;;;;5068785;28;20067;-68
2022/05/23 00:54:56;;;;;;;9.82;3.53;;;14.10;99.90;;;;;;5069091;28;20066;-68
2022/05/23 00:57:27;;;;;;;9.05;3.60;;;14.10;99.90;;;;;;5069424;28;20326;-68
2022/05/23 00:59:53;;;;;;;7.55;3.30;;;14.10;99.90;;;;;;5070056;28;20041;-67
2022/05/23 01:02:19;;;;;;;8.30;3.53;;;14.10;99.90;;;;;;5068220;28;20087;-68
2022/05/23 01:04:46;;;;;;;7.55;3.40;;;14.00;99.90;;;;;;5070387;28;20044;-68
2022/05/23 01:07:12;;;;;;;7.38;3.13;;;14.00;99.90;;;;;;5068935;28;20469;-68
2022/05/23 01:09:38;;;;;;;7.63;3.53;;;13.90;99.90;;;;;;5070871;28;20150;-67
2022/05/23 01:12:04;;;;;;;6.43;3.45;;;13.90;99.90;;;;;;5069402;28;20457;-67
2022/05/23 01:14:49;;;;;;;7.10;3.30;;;13.90;99.90;;;;;;5070687;28;20448;-67
2022/05/23 01:17:15;;;;;;;10.02;3.67;;;13.80;99.90;;;;;;5067021;28;20056;-68
2022/05/23 01:19:40;;;;;;;9.18;3.60;;;13.80;99.90;;;;;;5069210;28;20485;-68
2022/05/23 01:22:19;;;;;;;9.18;3.20;;;13.80;99.90;;;;;;5071899;28;20044;-68
2022/05/23 01:24:52;;;;;;;8.55;3.33;;;13.80;99.90;;;;;;5070120;28;20036;-68
2022/05/23 01:27:19;;;;;;;6.82;3.00;;;14.00;99.90;;;;;;5068521;28;20493;-68
2022/05/23 01:29:45;;;;;;;5.90;3.15;;;13.70;99.90;;;;;;5070602;28;20036;-68
2022/05/23 01:32:11;;;;;;;6.93;3.40;;;13.70;99.90;;;;;;5066394;28;20051;-68
2022/05/23 01:34:37;;;;;;;9.13;3.60;;;13.60;99.90;;;;;;5079624;28;20171;-67
2022/05/23 01:37:03;;;;;;;6.80;3.47;;;13.60;99.90;;;;;;5069729;28;20040;-68
2022/05/23 01:39:28;;;;;;;6.10;3.60;;;13.50;99.90;;;;;;5069433;28;20052;-68
2022/05/23 01:41:54;;;;;;;7.03;3.53;;;13.60;99.90;;;;;;5068550;28;20036;-68
2022/05/23 01:44:20;;;;;;;7.10;3.40;;;13.50;99.90;;;;;;5069053;28;20481;-68
2022/05/23 01:46:45;;;;;;;8.88;3.88;;;13.50;99.90;;;;;;5067930;28;20048;-69
2022/05/23 01:49:11;;;;;;;9.85;3.85;;;13.40;99.90;;;;;;5068362;28;20185;-69
2022/05/23 01:51:37;;;;;;;7.00;3.88;;;13.40;99.90;;;;;;5068754;28;20237;-68
2022/05/23 01:54:03;;;;;;;6.25;3.70;;;13.40;99.90;;;;;;5069949;28;20029;-67
2022/05/23 01:56:28;;;;;;;6.18;3.38;;;13.40;99.90;;;;;;5070196;28;20485;-68
2022/05/23 02:01:38;;;;;;;6.45;3.80;;;13.60;99.90;;;;;;5067170;28;20517;-68
2022/05/23 02:04:04;;;;;;;5.95;3.80;;;13.50;99.90;;;;;;5067551;28;20155;-67
2022/05/23 02:06:30;;;;;;;6.88;3.80;;;14.60;99.90;;;;;;5068313;28;20461;-68
2022/05/23 02:08:55;;;;;;;6.53;3.70;;;13.50;99.90;;;;;;5069065;28;20087;-68
2022/05/23 02:11:21;;;;;;;6.78;3.88;;;13.70;99.90;;;;;;5067868;28;20052;-68
2022/05/23 02:13:47;;;;;;;6.38;3.80;;;13.60;99.90;;;;;;5068002;28;20039;-68
2022/05/23 02:16:13;;;;;;;6.03;3.80;;;13.60;99.90;;;;;;5065767;28;20044;-68
2022/05/23 02:18:39;;;;;;;7.85;4.25;;;13.60;99.90;;;;;;5066616;28;20378;-68
2022/05/23 02:21:04;;;;;;;8.85;4.40;;;13.60;99.90;;;;;;5068848;28;20060;-68
2022/05/23 02:23:30;;;;;;;8.50;4.75;;;13.60;99.90;;;;;;5048823;28;20452;-68
2022/05/23 02:25:56;;;;;;;9.13;4.43;;;13.60;99.90;;;;;;5064609;28;20501;-68
2022/05/23 02:28:22;;;;;;;8.93;4.38;;;13.60;99.90;;;;;;5068494;28;20047;-68
2022/05/23 02:30:48;;;;;;;5.90;4.07;;;13.50;99.90;;;;;;5066493;28;20087;-67
2022/05/23 02:33:15;;;;;;;8.32;4.43;;;13.50;99.90;;;;;;5067141;28;20041;-68
2022/05/23 02:35:41;;;;;;;9.25;4.43;;;13.50;99.90;;;;;;5067963;28;20044;-67
2022/05/23 02:38:07;;;;;;;8.13;4.60;;;13.60;99.90;;;;;;5067472;28;20045;-68
2022/05/23 02:40:33;;;;;;;8.55;4.20;;;13.40;99.90;;;;;;5068808;28;20089;-67
2022/05/23 02:42:59;;;;;;;10.73;4.90;;;13.40;99.90;;;;;;5069499;28;20043;-67
2022/05/23 02:45:24;;;;;;;9.60;4.53;;;13.90;99.90;;;;;;5069873;28;20044;-68
2022/05/23 02:47:51;;;;;;;7.35;4.50;;;13.40;99.90;;;;;;5065654;28;20553;-68
2022/05/23 02:50:16;;;;;;;8.23;4.80;;;13.40;99.90;;;;;;5068492;28;20044;-67
2022/05/23 02:52:44;;;;;;;7.75;4.60;;;13.40;99.90;;;;;;5065877;28;20386;-67
2022/05/23 02:55:09;;;;;;;10.10;4.70;;;13.90;99.90;;;;;;5068372;28;20040;-67
2022/05/23 02:57:36;;;;;;;8.38;4.70;;;13.40;99.90;;;;;;5066785;28;20049;-68
2022/05/23 03:00:06;;;;;;;12.02;4.50;;;13.40;99.90;;;;;;5068390;28;20357;-67
2022/05/23 03:05:16;;;;;;;7.35;4.53;;;13.40;99.90;;;;;;5047435;28;20098;-68
2022/05/23 03:07:42;;;;;;;7.32;4.68;;;13.30;99.90;;;;;;5068306;28;20074;-68
2022/05/23 03:10:08;;;;;;;8.52;4.30;;;13.40;99.90;;;;;;5068745;28;20608;-68
2022/05/23 03:12:34;;;;;;;8.00;4.70;;;13.40;99.90;;;;;;5052397;28;20128;-68
2022/05/23 03:15:00;;;;;;;8.85;5.00;;;13.40;99.90;;;;;;5068893;28;20040;-67
2022/05/23 03:17:26;;;;;;;6.57;4.45;;;13.40;99.90;;;;;;5065198;28;20044;-68
2022/05/23 03:19:51;;;;;;;11.60;4.90;;;13.40;99.90;;;;;;5066026;28;20055;-68
2022/05/23 03:27:47;;;;;;;6.68;4.25;;;13.40;99.90;;;;;;5067473;28;20053;-67
2022/05/23 03:30:13;;;;;;;8.05;4.57;;;13.40;99.90;;;;;;5068830;28;20451;-68
2022/05/23 03:32:39;;;;;;;8.63;4.90;;;13.30;99.90;;;;;;5066496;28;20508;-67
2022/05/23 03:35:07;;;;;;;8.48;4.78;;;13.30;99.90;;;;;;5062381;28;20091;-68
2022/05/23 03:37:33;;;;;;;6.13;4.53;;;13.30;99.90;;;;;;5063275;28;20045;-68
2022/05/23 03:40:02;;;;;;;9.05;4.70;;;13.30;99.90;;;;;;5059698;28;20045;-68
2022/05/23 03:42:29;;;;;;;6.75;4.57;;;13.40;99.90;;;;;;5066862;28;20083;-68
2022/05/23 03:44:54;;;;;;;9.48;4.65;;;13.40;99.90;;;;;;5068521;28;20044;-68
2022/05/23 03:47:20;;;;;;;8.15;4.43;;;13.40;99.90;;;;;;5064644;28;20048;-69
2022/05/23 03:49:45;;;;;;;8.10;4.55;;;13.40;99.90;;;;;;5062416;28;20174;-67
2022/05/23 03:52:11;;;;;;;9.27;4.72;;;13.40;99.90;;;;;;5060036;28;20053;-67
2022/05/23 03:54:37;;;;;;;8.02;4.60;;;13.40;99.90;;;;;;5066832;28;20052;-67
2022/05/23 03:57:03;;;;;;;9.32;4.50;;;13.40;99.90;;;;;;5067639;28;20044;-68
2022/05/23 03:59:30;;;;;;;8.35;4.80;;;13.40;99.90;;;;;;5066704;28;20056;-68
2022/05/23 04:01:57;;;;;;;7.15;4.43;;;13.40;99.90;;;;;;5065459;28;20068;-68
2022/05/23 04:04:27;;;;;;;13.48;4.75;;;13.50;99.90;;;;;;5067285;28;20058;-68
2022/05/23 04:06:53;;;;;;;8.50;4.80;;;13.50;99.90;;;;;;5067789;28;20044;-67
2022/05/23 04:09:19;;;;;;;7.25;4.63;;;13.50;99.90;;;;;;5066549;28;20535;-68
2022/05/23 04:11:45;;;;;;;8.60;4.30;;;13.50;99.90;;;;;;5056861;28;20033;-68
2022/05/23 04:14:11;;;;;;;6.47;4.50;;;13.50;99.90;;;;;;5064286;28;20071;-68
2022/05/23 04:16:37;;;;;;;10.55;4.63;;;13.50;99.90;;;;;;5064982;28;20057;-67
2022/05/23 04:19:05;;;;;;;6.50;4.32;;;13.50;99.90;;;;;;5067592;28;20045;-68
2022/05/23 04:21:31;;;;;;;8.43;4.72;;;13.50;99.90;;;;;;5066765;28;20086;-68
2022/05/23 04:23:57;;;;;;;9.80;4.60;;;13.50;99.90;;;;;;5067124;28;20505;-68
2022/05/23 04:26:23;;;;;;;7.90;4.78;;;13.50;99.90;;;;;;5065364;28;20052;-68
2022/05/23 04:28:48;;;;;;;10.20;5.18;;;13.50;99.90;;;;;;5070450;28;20060;-68
2022/05/23 04:31:14;;;;;;;9.35;5.25;;;13.60;99.90;;;;;;5068512;28;20497;-68
2022/05/23 04:36:24;;;;;;;10.13;5.18;;;13.50;99.90;;;;;;5070405;28;20153;-67
2022/05/23 04:38:49;;;;;;;8.07;5.30;;;13.50;99.90;;;;;;5068385;28;20124;-67
2022/05/23 04:41:15;;;;;;;10.40;5.60;;;13.50;99.90;;;;;;5062576;28;20044;-67
2022/05/23 04:43:41;;;;;;;10.05;5.38;;;13.60;99.90;;;;;;5069941;28;20493;-67
2022/05/23 04:46:07;;;;;;;11.43;5.63;;;13.60;99.90;;;;;;5070375;28;20045;-68
2022/05/23 04:51:16;;;;;;;8.40;5.50;;;13.60;99.90;;;;;;5070000;28;20400;-68
2022/05/23 04:53:42;;;;;;;11.52;5.60;;;13.60;99.90;;;;;;5068649;28;20033;-68
2022/05/23 04:56:08;;;;;;;11.40;5.97;;;13.70;99.90;;;;;;5068565;28;20056;-68
2022/05/23 04:58:33;;;;;;;10.50;5.85;;;13.70;99.90;;;;;;5069268;28;20044;-68
2022/05/23 05:01:00;;;;;;;8.68;5.43;;;13.80;99.90;;;;;;5070007;28;20048;-67
2022/05/23 05:03:25;;;;;;;9.00;5.40;;;13.80;99.90;;;;;;5069090;28;20083;-67
2022/05/23 05:05:51;;;;;;;8.02;5.20;;;13.80;99.90;;;;;;5072054;28;20041;-67
2022/05/23 05:08:17;;;;;;;8.82;5.10;;;14.20;99.90;;;;;;5070227;28;20103;-67
2022/05/23 05:10:43;;;;;;;9.80;5.07;;;14.00;99.90;;;;;;5070206;28;20506;-66
2022/05/23 05:13:09;;;;;;;9.00;4.90;;;14.10;99.90;;;;;;5067459;28;20044;-68
2022/05/23 05:15:35;;;;;;;8.27;5.15;;;14.20;99.90;;;;;;5068790;28;20163;-67
2022/05/23 05:18:00;;;;;;;10.25;5.50;;;14.20;99.90;;;;;;5068604;28;20041;-67
2022/05/23 05:20:28;;;;;;;11.07;5.45;;;14.30;99.90;;;;;;5068775;28;20045;-67
2022/05/23 05:22:54;;;;;;;7.57;5.18;;;14.40;99.90;;;;;;5069778;28;20374;-67
2022/05/23 05:25:20;;;;;;;12.07;5.50;;;14.40;99.90;;;;;;5067532;28;20055;-70
2022/05/23 05:27:46;;;;;;;11.25;5.78;;;14.50;99.90;;;;;;5066596;28;20036;-68
2022/05/23 05:30:15;;;;;;;10.10;5.75;;;14.80;99.90;;;;;;5048491;28;20049;-68
2022/05/23 05:33:00;;;;;;;9.70;5.40;;;14.50;99.90;;;;;;5058872;28;20178;-68
2022/05/23 05:35:36;;;;;;;10.10;5.60;;;14.60;99.90;;;;;;5068512;28;20060;-68
2022/05/23 05:38:09;;;;;;;7.50;5.95;;;15.10;99.90;;;;;;5067147;28;20056;-68
2022/05/23 05:40:36;;;;;;;11.18;5.80;;;14.60;99.90;;;;;;5070803;28;20098;-68
2022/05/23 05:43:16;;;;;;;10.43;6.10;;;15.10;99.90;;;;;;5070907;28;20040;-68
2022/05/23 05:45:50;;;;;;;11.43;6.43;;;14.70;99.90;;;;;;5069265;28;20378;-68
2022/05/23 05:48:17;;;;;;;11.67;6.07;;;15.60;99.90;;;;;;5067024;28;20107;-68
2022/05/23 05:50:44;;;;;;;11.27;5.82;;;14.70;99.90;;;;;;5069449;28;20293;-67
2022/05/23 05:53:14;;;;;;;12.88;6.15;;;15.20;99.90;;;;;;5069180;28;20427;-67
2022/05/23 05:55:42;;;;;;;9.85;6.15;;;14.80;99.90;;;;;;5066573;28;20564;-67
2022/05/23 05:58:08;;;;;;;12.30;6.30;;;14.40;99.90;;;;;;5068028;28;20135;-67
2022/05/23 06:00:34;;;;;;;11.90;6.38;;;15.20;99.90;;;;;;5067400;28;20060;-68
2022/05/23 06:03:00;;;;;;;13.80;6.47;;;14.80;99.90;;;;;;5066252;28;20052;-68
2022/05/23 06:05:25;;;;;;;13.68;7.00;;;14.90;99.90;;;;;;5049796;28;20084;-69
2022/05/23 06:13:19;;;;;;;11.43;6.82;;;15.00;99.90;;;;;;5066319;28;20041;-68
2022/05/23 06:15:45;;;;;;;10.88;6.22;;;15.60;99.90;;;;;;5067848;28;20406;-68
2022/05/23 06:18:11;;;;;;;18.98;7.47;;;15.20;99.90;;;;;;5064909;28;20048;-68
2022/05/23 06:20:38;;;;;;;11.35;6.65;;;15.20;99.90;;;;;;5067474;28;20041;-68
2022/05/23 06:23:05;;;;;;;12.77;6.80;;;15.40;99.90;;;;;;5067013;28;20453;-68
2022/05/23 06:25:31;;;;;;;14.85;6.95;;;15.40;99.90;;;;;;5068063;28;20045;-68
2022/05/23 06:27:57;;;;;;;11.68;6.35;;;15.50;99.90;;;;;;5066854;28;20120;-68
2022/05/23 06:30:23;;;;;;;11.40;6.22;;;15.60;99.90;;;;;;5066973;28;20045;-69
2022/05/23 06:32:49;;;;;;;10.15;6.13;;;15.60;99.90;;;;;;5066520;28;20051;-68
2022/05/23 06:35:15;;;;;;;11.40;6.20;;;15.70;99.90;;;;;;5067230;28;20033;-68
2022/05/23 06:37:43;;;;;;;12.10;6.53;;;15.90;99.90;;;;;;5066910;28;20044;-69
2022/05/23 06:40:12;;;;;;;11.15;6.30;;;16.00;99.90;;;;;;5069351;28;20041;-68
2022/05/23 06:42:38;;;;;;;10.77;5.80;;;16.10;99.90;;;;;;5068542;28;20048;-68
2022/05/23 06:45:06;;;;;;;12.48;5.70;;;16.20;99.90;;;;;;5067860;28;20043;-68
2022/05/23 06:47:33;;;;;;;10.32;5.80;;;16.30;99.90;;;;;;5064330;28;20071;-68
2022/05/23 06:49:58;;;;;;;13.65;6.13;;;16.40;99.90;;;;;;5067468;28;20247;-68
2022/05/23 06:52:24;;;;;;;9.30;5.10;;;16.50;99.90;;;;;;5065429;28;20167;-67
2022/05/23 06:54:50;;;;;;;10.90;5.65;;;16.60;99.90;;;;;;5067824;28;20147;-68
2022/05/23 06:57:16;;;;;;;12.93;5.80;;;16.70;99.90;;;;;;5063952;28;20519;-68
2022/05/23 06:59:42;;;;;;;10.23;5.38;;;16.80;99.90;;;;;;5067842;28;20092;-67
2022/05/23 07:02:09;;;;;;;10.80;4.90;;;16.90;99.90;;;;;;5065773;28;20044;-68
2022/05/23 07:12:52;;;;;;;11.55;5.65;;;17.30;99.90;;;;;;5056238;28;20061;-67
2022/05/23 07:15:17;;;;;;;10.65;5.30;;;17.40;99.90;;;;;;5067421;28;20503;-68
2022/05/23 07:17:43;;;;;;;10.02;5.30;;;17.50;99.90;;;;;;5066278;28;20040;-67
2022/05/23 07:20:11;;;;;;;7.55;5.05;;;17.50;99.90;;;;;;5067072;28;20045;-67
2022/05/23 07:22:36;;;;;;;8.43;5.28;;;17.60;99.90;;;;;;5068399;28;20539;-67
2022/05/23 07:25:02;;;;;;;8.07;5.03;;;17.60;99.90;;;;;;5064346;28;20041;-67
2022/05/23 07:27:29;;;;;;;8.05;4.75;;;17.70;99.90;;;;;;5052779;28;20135;-68
2022/05/23 07:29:55;;;;;;;9.75;5.35;;;17.80;99.90;;;;;;5068360;28;20040;-68
2022/05/23 07:32:21;;;;;;;8.15;5.10;;;17.90;99.90;;;;;;5064508;28;20095;-69
2022/05/23 07:34:46;;;;;;;8.80;5.38;;;18.10;99.90;;;;;;5032685;28;20084;-68
2022/05/23 07:37:15;;;;;;;10.65;5.22;;;18.90;99.90;;;;;;5060599;28;20029;-68
2022/05/23 07:39:41;;;;;;;9.60;4.93;;;18.60;99.90;;;;;;5068986;28;20049;-68
2022/05/23 07:42:08;;;;;;;10.48;5.20;;;18.40;99.90;;;;;;5066885;28;20119;-68
2022/05/23 07:44:36;;;;;;;13.93;5.50;;;18.50;99.90;;;;;;5066236;28;20124;-68
2022/05/23 07:47:03;;;;;;;9.88;5.47;;;18.60;99.90;;;;;;5064188;28;20049;-68
2022/05/23 07:49:29;;;;;;;11.20;5.18;;;18.60;99.90;;;;;;5066939;28;20485;-68
2022/05/23 07:51:56;;;;;;;14.23;5.25;;;19.00;99.90;;;;;;5065359;28;20044;-69
2022/05/23 08:02:48;;;;;;;11.05;5.10;;;19.20;99.90;;;;;;5066081;28;20064;-70
2022/05/23 08:05:13;;;;;;;9.18;5.63;;;19.40;99.90;;;;;;5069810;28;20048;-69
2022/05/23 08:07:39;;;;;;;8.90;5.25;;;19.20;99.90;;;;;;5069778;28;20548;-69
2022/05/23 08:10:05;;;;;;;10.70;5.45;;;19.70;99.90;;;;;;5071404;28;20044;-69
2022/05/23 08:12:31;;;;;;;9.38;5.55;;;19.20;99.90;;;;;;5069547;28;20460;-69
2022/05/23 08:14:57;;;;;;;8.52;5.25;;;19.40;99.90;;;;;;5070390;28;20468;-69
2022/05/23 08:17:23;;;;;;;10.43;5.90;;;19.50;99.90;;;;;;5067357;28;20529;-69
2022/05/23 08:19:49;;;;;;;10.43;5.70;;;19.70;99.90;;;;;;5069851;28;20128;-69
2022/05/23 08:22:16;;;;;;;9.57;5.65;;;19.70;99.90;;;;;;5072120;28;20175;-69
2022/05/23 08:24:42;;;;;;;10.38;5.53;;;19.80;99.90;;;;;;5068432;28;20037;-69
2022/05/23 08:27:08;;;;;;;10.98;6.03;;;19.90;99.90;;;;;;5069561;28;20463;-69
2022/05/23 08:29:35;;;;;;;9.15;5.03;;;19.90;99.90;;;;;;5070681;28;20044;-67
2022/05/23 08:32:02;;;;;;;9.27;5.40;;;20.10;99.90;;;;;;5073306;28;20037;-68
2022/05/23 08:34:28;;;;;;;10.75;5.38;;;20.10;99.90;;;;;;5078281;28;20076;-68
2022/05/23 08:36:54;;;;;;;8.60;5.28;;;20.20;99.90;;;;;;5069308;28;20493;-68
2022/05/23 08:39:20;;;;;;;10.23;5.07;;;20.40;99.90;;;;;;5068478;28;20045;-67
2022/05/23 08:41:50;;;;;;;12.40;6.07;;;20.50;99.90;;;;;;5068615;28;20047;-68
2022/05/23 08:44:26;;;;;;;12.50;5.93;;;20.60;99.90;;;;;;5069485;28;20047;-67
2022/05/23 08:46:55;;;;;;;10.75;5.30;;;20.80;99.90;;;;;;5072251;28;20335;-67
2022/05/23 08:50:08;;;;;;;10.85;6.35;;;21.00;99.90;;;;;;5071404;28;20048;-67
2022/05/23 08:52:47;;;;;;;9.35;5.45;;;21.10;99.90;;;;;;5043636;28;20057;-68
2022/05/23 08:55:17;;;;;;;9.73;5.20;;;21.30;99.90;;;;;;5066552;28;20048;-67
2022/05/23 08:57:52;;;;;;;11.15;5.25;;;21.40;99.90;;;;;;5054108;28;20061;-67
2022/05/23 09:00:41;;;;;;;8.43;5.00;;;21.50;99.90;;;;;;5051408;28;20060;-68
2022/05/23 09:03:16;;;;;;;9.05;4.97;;;21.60;99.90;;;;;;5043944;28;20135;-68
2022/05/23 09:05:49;;;;;;;7.82;4.88;;;21.70;99.90;;;;;;5059932;28;20516;-68
2022/05/23 09:08:20;;;;;;;11.98;5.15;;;21.90;99.90;;;;;;5069125;28;20056;-67
2022/05/23 09:11:25;;;;;;;10.75;5.60;;;21.80;99.90;;;;;;5068882;28;20484;-68
2022/05/23 09:13:51;;;;;;;9.63;5.43;;;21.80;99.90;;;;;;5044909;28;20513;-69
2022/05/23 09:16:17;;;;;;;12.48;5.90;;;21.80;99.90;;;;;;5039790;28;20056;-69
2022/05/23 09:18:51;;;;;;;12.23;5.53;;;21.80;99.90;;;;;;5049845;28;20384;-69
2022/05/23 09:21:17;;;;;;;9.80;5.72;;;21.80;99.90;;;;;;5049036;28;20680;-68
2022/05/23 09:23:51;;;;;;;8.70;5.18;;;21.90;99.90;;;;;;5050345;28;20112;-67
2022/05/23 09:26:29;;;;;;;10.57;5.53;;;22.00;99.90;;;;;;5049773;28;20116;-68
2022/05/23 09:28:55;;;;;;;8.13;5.10;;;22.00;99.90;;;;;;5050176;28;20037;-68
2022/05/23 09:31:34;;;;;;;9.02;5.22;;;22.20;99.90;;;;;;5046939;28;20041;-68
2022/05/23 09:34:00;;;;;;;7.70;4.40;;;22.30;99.90;;;;;;5064092;28;20037;-68
2022/05/23 09:36:40;;;;;;;9.40;4.55;;;22.50;99.90;;;;;;5067880;28;20097;-68
2022/05/23 09:39:08;;;;;;;7.95;4.50;;;22.70;99.90;;;;;;5067382;28;20040;-68
2022/05/23 09:49:52;;;;;;;9.13;4.10;;;23.90;99.90;;;;;;5069963;28;20053;-68
2022/05/23 09:52:25;;;;;;;7.28;3.45;;;24.30;99.90;;;;;;5067908;28;20063;-68
2022/05/23 09:55:04;;;;;;;7.07;3.00;;;24.70;99.90;;;;;;5070833;28;20457;-68
2022/05/23 09:57:52;;;;;;;6.22;3.00;;;25.20;99.90;;;;;;5068003;28;20409;-67
2022/05/23 10:00:18;;;;;;;7.22;3.40;;;25.40;99.90;;;;;;5068823;28;20133;-68
2022/05/23 10:02:52;;;;;;;7.72;3.33;;;25.50;99.90;;;;;;5066803;28;20517;-68
2022/05/23 10:05:32;;;;;;;6.25;3.70;;;25.30;99.90;;;;;;5068239;28;20503;-68
2022/05/23 10:08:01;;;;;;;8.80;3.50;;;25.60;99.70;;;;;;5068698;28;20105;-68
2022/05/23 10:10:36;;;;;;;6.47;3.50;;;25.30;99.90;;;;;;5066822;28;20064;-68
2022/05/23 10:13:28;;;;;;;6.43;3.40;;;25.20;99.90;;;;;;5047972;28;20056;-68
2022/05/23 10:16:09;;;;;;;7.68;3.42;;;25.10;99.90;;;;;;5062870;28;20116;-67
2022/05/23 10:19:01;;;;;;;8.55;3.60;;;24.90;99.90;;;;;;5067069;28;20072;-67
2022/05/23 10:21:40;;;;;;;8.15;3.67;;;24.80;99.90;;;;;;5067009;28;20044;-67
2022/05/23 10:24:27;;;;;;;5.40;3.50;;;24.80;99.90;;;;;;5068814;28;20050;-67
2022/05/23 10:27:03;;;;;;;7.53;3.50;;;24.70;99.90;;;;;;5067643;28;20041;-68
2022/05/23 10:29:46;;;;;;;9.48;3.58;;;24.60;99.90;;;;;;5067046;28;20056;-69
2022/05/23 10:32:19;;;;;;;7.85;3.50;;;24.60;99.90;;;;;;5061895;28;20075;-68
2022/05/23 10:34:53;;;;;;;6.78;3.03;;;24.60;99.90;;;;;;5064038;28;20394;-69
2022/05/23 10:37:20;;;;;;;6.47;3.05;;;24.70;99.90;;;;;;5064025;28;20047;-69
2022/05/23 10:42:38;;;;;;;6.63;2.80;;;25.50;99.90;;;;;;5060722;28;20044;-68
2022/05/23 10:45:19;;;;;;;7.43;3.10;;;26.10;98.90;;;;;;5064417;28;20049;-68
2022/05/23 10:48:02;;;;;;;6.03;2.83;;;26.20;97.80;;;;;;5061409;28;20595;-69
2022/05/23 10:50:45;;;;;;;9.45;3.08;;;26.30;98.20;;;;;;5060996;28;20502;-69
2022/05/23 10:53:42;;;;;;;4.95;2.67;;;26.70;97.30;;;;;;5062151;28;20548;-68
2022/05/23 10:56:40;;;;;;;8.95;2.80;;;27.60;96.40;;;;;;5061889;28;20047;-69
2022/05/23 10:59:22;;;;;;;5.93;2.60;;;29.10;95.60;;;;;;5060255;28;20045;-69
2022/05/23 11:02:13;;;;;;;7.63;2.63;;;29.80;93.10;;;;;;5060899;28;20125;-69
2022/05/23 11:05:10;;;;;;;5.35;2.40;;;29.80;92.70;;;;;;5069910;28;20051;-69
2022/05/23 11:07:55;;;;;;;5.30;2.28;;;30.90;92.40;;;;;;5063420;28;20049;-70
2022/05/23 11:10:49;;;;;;;5.40;2.22;;;33.30;88.80;;;;;;5059409;28;20056;-70
2022/05/23 11:13:27;;;;;;;7.32;2.28;;;35.40;81.40;;;;;;5059121;28;20344;-70
2022/05/23 11:16:02;;;;;;;6.82;1.98;;;36.70;74.80;;;;;;5062696;28;20060;-69
2022/05/23 11:18:37;;;;;;;5.68;2.25;;;36.70;72.90;;;;;;5061087;28;20048;-70
2022/05/23 11:21:20;;;;;;;6.95;2.60;;;36.90;69.30;;;;;;5061684;28;20043;-71
2022/05/23 11:23:52;;;;;;;5.00;2.25;;;36.70;67.00;;;;;;5064774;28;20068;-72
2022/05/23 11:26:42;;;;;;;5.15;2.33;;;37.20;67.40;;;;;;5063526;28;20049;-71
2022/05/23 11:34:57;;;;;;;7.50;2.00;;;42.20;60.30;;;;;;5066674;28;20048;-72
2022/05/23 11:37:45;;;;;;;6.53;2.50;;;43.50;57.90;;;;;;5065301;28;20116;-72
2022/05/23 11:40:36;;;;;;;6.70;2.10;;;43.70;54.50;;;;;;5068984;28;20424;-72
2022/05/23 11:43:09;;;;;;;7.45;2.05;;;43.00;53.20;;;;;;5068782;28;20115;-72
2022/05/23 11:45:57;;;;;;;5.85;2.08;;;42.70;52.60;;;;;;5066254;28;20036;-71
2022/05/23 11:48:39;;;;;;;5.18;2.00;;;42.90;52.10;;;;;;5067158;28;20044;-71
2022/05/23 11:51:15;;;;;;;6.10;1.85;;;41.90;50.80;;;;;;5067207;28;20044;-72
2022/05/23 11:53:43;;;;;;;4.85;1.90;;;39.60;51.90;;;;;;5067432;28;20071;-72
2022/05/23 11:56:30;;;;;;;7.30;2.10;;;37.90;52.90;;;;;;5070255;28;20048;-71
2022/05/23 11:58:56;;;;;;;7.50;2.10;;;36.10;53.90;;;;;;5070568;28;20052;-70
2022/05/23 12:01:26;;;;;;;2.92;1.73;;;34.50;54.70;;;;;;5068459;28;20064;-71
2022/05/23 12:03:55;;;;;;;7.82;1.90;;;33.40;56.20;;;;;;5069312;28;20037;-71
2022/05/23 12:06:24;;;;;;;5.07;2.03;;;32.70;57.10;;;;;;5070397;28;20401;-71
2022/05/23 12:09:00;;;;;;;4.50;1.75;;;32.60;57.60;;;;;;5069418;28;20043;-71
2022/05/23 12:11:33;;;;;;;5.75;1.90;;;32.80;57.30;;;;;;5068546;28;20048;-70
2022/05/23 12:14:17;;;;;;;5.47;1.90;;;33.10;56.80;;;;;;5070980;28;20051;-71
2022/05/23 12:16:49;;;;;;;3.72;1.65;;;33.10;57.40;;;;;;5069401;28;20131;-70
2022/05/23 12:19:21;;;;;;;5.25;1.80;;;32.80;57.20;;;;;;5067776;28;20078;-70
2022/05/23 12:21:48;;;;;;;3.83;1.63;;;32.30;57.40;;;;;;5069287;28;20056;-70
2022/05/23 12:24:22;;;;;;;3.42;1.98;;;31.70;58.20;;;;;;5065240;28;20402;-70
2022/05/23 12:26:51;;;;;;;4.35;1.95;;;31.30;58.50;;;;;;5050742;28;20045;-71
2022/05/23 12:29:25;;;;;;;7.35;1.95;;;31.00;58.60;;;;;;5051195;28;20044;-71
2022/05/23 12:32:16;;;;;;;4.80;2.08;;;30.50;59.20;;;;;;5067617;28;20397;-71
2022/05/23 12:34:46;;;;;;;5.03;1.88;;;29.90;60.20;;;;;;5069386;28;20048;-71
2022/05/23 12:37:27;;;;;;;5.35;1.90;;;29.30;61.00;;;;;;5069080;28;20052;-71
2022/05/23 12:40:01;;;;;;;5.80;1.98;;;28.90;61.50;;;;;;5055815;28;20045;-71
2022/05/23 12:42:51;;;;;;;6.00;2.00;;;28.50;62.70;;;;;;5064206;28;20065;-70
2022/05/23 12:45:20;;;;;;;7.15;2.10;;;28.00;63.40;;;;;;5065409;28;20079;-71
2022/05/23 12:48:04;;;;;;;7.13;1.92;;;27.70;63.90;;;;;;5066539;28;20052;-71
2022/05/23 12:50:52;;;;;;;5.28;2.22;;;27.40;65.20;;;;;;5070174;28;20036;-71
2022/05/23 12:53:24;;;;;;;6.10;2.20;;;27.20;65.50;;;;;;5069289;28;20096;-70
2022/05/23 12:56:22;;;;;;;7.47;2.03;;;26.90;66.60;;;;;;5068682;28;20049;-70
2022/05/23 12:59:24;;;;;;;6.50;2.00;;;26.60;67.40;;;;;;5058459;28;20060;-70
2022/05/23 13:01:56;;;;;;;14.38;2.50;;;26.50;68.60;;;;;;5066000;28;20439;-70
2022/05/23 13:04:47;;;;;;;3.58;1.95;;;26.30;69.40;;;;;;5067901;28;20473;-70
2022/05/23 13:07:35;;;;;;;5.03;2.40;;;26.40;70.00;;;;;;5072655;28;20067;-71
2022/05/23 13:10:08;;;;;;;6.60;2.22;;;26.30;70.10;;;;;;5070596;28;20127;-70
2022/05/23 13:12:44;;;;;;;6.88;2.55;;;26.30;70.40;;;;;;5066318;28;20044;-70
2022/05/23 13:15:20;;;;;;;4.60;2.20;;;26.40;71.10;;;;;;5068007;28;20424;-71
2022/05/23 13:17:46;;;;;;;4.20;2.20;;;26.20;71.90;;;;;;5049347;28;20071;-70
2022/05/23 13:23:16;;;;;;;7.70;2.50;;;26.00;74.80;;;;;;5067813;28;20052;-70
2022/05/23 13:25:43;;;;;;;6.05;2.35;;;25.90;75.80;;;;;;5069785;28;20037;-70
2022/05/23 13:28:11;;;;;;;7.22;2.63;;;25.80;76.40;;;;;;5069037;28;20094;-70
2022/05/23 13:30:48;;;;;;;4.40;2.42;;;25.70;78.00;;;;;;5070953;28;20059;-70
2022/05/23 13:33:21;;;;;;;6.93;2.47;;;25.60;79.60;;;;;;5066703;28;20480;-70
2022/05/23 13:35:53;;;;;;;6.05;2.40;;;25.50;81.60;;;;;;5069943;28;20377;-69
2022/05/23 13:38:22;;;;;;;9.48;2.63;;;25.50;83.70;;;;;;5069665;28;20123;-70
2022/05/23 13:40:51;;;;;;;4.03;2.55;;;25.60;86.90;;;;;;5051826;28;20485;-70
2022/05/23 13:43:44;;;;;;;7.30;2.40;;;25.40;89.10;;;;;;5068784;28;20041;-70
2022/05/23 13:46:19;;;;;;;4.90;2.40;;;25.40;90.40;;;;;;5068449;28;20087;-71
2022/05/23 13:49:08;;;;;;;6.38;2.58;;;25.30;91.20;;;;;;5069125;28;20094;-71
2022/05/23 13:51:44;;;;;;;6.13;2.50;;;25.20;92.00;;;;;;5067701;28;20048;-71
2022/05/23 13:54:34;;;;;;;6.32;2.55;;;25.10;92.80;;;;;;5069063;28;20067;-69
2022/05/23 13:57:15;;;;;;;3.38;2.13;;;25.10;93.40;;;;;;5068096;28;20438;-69
2022/05/23 13:59:50;;;;;;;8.20;2.65;;;25.00;94.40;;;;;;5068274;28;20153;-69
2022/05/23 14:02:28;;;;;;;5.15;2.40;;;25.00;94.40;;;;;;5050594;28;20052;-70
2022/05/23 14:04:54;;;;;;;8.85;2.53;;;25.10;94.80;;;;;;5048281;28;20037;-70
2022/05/23 14:07:25;;;;;;;5.47;2.35;;;24.90;95.90;;;;;;5053999;28;20182;-70